createdAt,value
2022-08-05T00:01:27.861Z,4.00
2022-08-05T00:03:57.056Z,3.70
2022-08-05T00:06:32.129Z,3.65
2022-08-05T00:09:00.883Z,4.13
2022-08-05T00:11:30.520Z,3.88
2022-08-05T00:14:12.976Z,3.75
2022-08-05T00:16:52.793Z,4.60
2022-08-05T00:19:24.941Z,3.90
2022-08-05T00:21:59.635Z,4.43
2022-08-05T00:24:30.705Z,5.18
2022-08-05T00:27:01.719Z,4.55
2022-08-05T00:29:37.729Z,4.55
2022-08-05T00:32:12.445Z,4.13
2022-08-05T00:35:04.018Z,4.20
2022-08-05T00:37:35.321Z,3.95
2022-08-05T00:40:17.973Z,4.30
2022-08-05T00:42:54.918Z,4.18
2022-08-05T00:45:24.968Z,4.60
2022-08-05T00:48:05.202Z,3.75
2022-08-05T00:50:32.745Z,4.82
2022-08-05T00:52:59.568Z,4.57
2022-08-05T00:55:42.506Z,5.07
2022-08-05T00:58:13.990Z,4.55
2022-08-05T01:00:42.258Z,4.43
2022-08-05T01:03:10.644Z,4.70
2022-08-05T01:05:54.660Z,4.53
2022-08-05T01:08:40.148Z,5.18
2022-08-05T01:11:33.231Z,4.55
2022-08-05T01:14:08.989Z,5.03
2022-08-05T01:16:48.681Z,4.43
2022-08-05T01:19:56.078Z,4.53
2022-08-05T01:22:30.589Z,4.63
2022-08-05T01:25:39.891Z,4.53
2022-08-05T01:28:21.085Z,4.32
2022-08-05T01:31:03.011Z,4.15
2022-08-05T01:33:36.268Z,4.28
2022-08-05T01:36:13.146Z,4.38
2022-08-05T01:38:52.322Z,3.80
2022-08-05T01:41:25.807Z,4.00
2022-08-05T01:43:53.738Z,4.40
2022-08-05T01:46:42.933Z,3.55
2022-08-05T01:49:24.241Z,4.15
2022-08-05T01:51:59.158Z,4.20
2022-08-05T01:54:32.540Z,4.38
2022-08-05T01:58:11.777Z,4.25
2022-08-05T01:59:49.475Z,3.70
2022-08-05T02:02:20.304Z,4.05
2022-08-05T02:04:58.476Z,4.68
2022-08-05T02:07:25.594Z,4.18
2022-08-05T02:09:57.643Z,4.65
2022-08-05T02:12:33.159Z,4.65
2022-08-05T02:15:12.446Z,4.80
2022-08-05T02:18:28.451Z,4.43
2022-08-05T02:20:44.172Z,4.30
2022-08-05T02:23:14.963Z,4.47
2022-08-05T02:25:50.286Z,4.50
2022-08-05T02:28:29.058Z,4.35
2022-08-05T02:31:00.953Z,4.80
2022-08-05T02:33:36.028Z,4.30
2022-08-05T02:36:09.670Z,4.10
2022-08-05T02:38:44.059Z,4.20
2022-08-05T02:41:22.751Z,4.00
2022-08-05T02:44:02.679Z,4.50
2022-08-05T02:46:53.849Z,3.90
2022-08-05T02:49:36.624Z,4.90
2022-08-05T02:52:07.876Z,4.20
2022-08-05T02:54:41.283Z,3.95
2022-08-05T02:58:10.787Z,4.60
2022-08-05T03:00:01.342Z,4.32
2022-08-05T03:02:37.011Z,4.75
2022-08-05T03:05:05.111Z,4.35
2022-08-05T03:07:59.413Z,4.82
2022-08-05T03:10:21.950Z,4.43
2022-08-05T03:12:55.343Z,4.47
2022-08-05T03:15:24.281Z,4.20
2022-08-05T03:17:57.538Z,5.03
2022-08-05T03:20:24.968Z,4.47
2022-08-05T03:22:57.630Z,4.28
2022-08-05T03:25:34.054Z,4.45
2022-08-05T03:28:18.849Z,4.97
2022-08-05T03:30:48.380Z,4.78
2022-08-05T03:33:16.679Z,4.88
2022-08-05T03:35:46.507Z,4.80
2022-08-05T03:38:14.517Z,5.30
2022-08-05T03:40:48.569Z,4.70
2022-08-05T03:44:08.167Z,5.18
2022-08-05T03:46:04.910Z,4.78
2022-08-05T03:48:35.293Z,4.70
2022-08-05T03:52:35.218Z,4.75
2022-08-05T03:55:49.904Z,5.05
2022-08-05T03:57:41.755Z,4.95
2022-08-05T04:00:15.507Z,5.72
2022-08-05T04:02:58.035Z,5.07
2022-08-05T04:05:34.902Z,5.68
2022-08-05T04:08:30.119Z,4.60
2022-08-05T04:10:58.129Z,5.53
2022-08-05T04:13:50.036Z,4.80
2022-08-05T04:16:15.760Z,4.63
2022-08-05T04:18:54.313Z,5.10
2022-08-05T04:22:10.006Z,4.63
2022-08-05T04:24:09.088Z,4.63
2022-08-05T04:26:41.599Z,4.78
2022-08-05T04:29:08.374Z,5.65
2022-08-05T04:31:38.792Z,4.40
2022-08-05T04:34:33.117Z,5.03
2022-08-05T04:36:52.991Z,4.78
2022-08-05T04:39:20.254Z,5.13
2022-08-05T04:41:48.459Z,4.68
2022-08-05T04:44:16.150Z,5.10
2022-08-05T04:46:48.584Z,4.60
2022-08-05T04:49:15.497Z,4.80
2022-08-05T04:51:45.233Z,6.07
2022-08-05T04:54:16.696Z,4.35
2022-08-05T04:56:48.820Z,4.88
2022-08-05T04:59:21.824Z,4.60
2022-08-05T05:02:07.011Z,4.75
2022-08-05T05:04:35.794Z,4.25
2022-08-05T05:07:09.500Z,6.05
2022-08-05T05:09:37.232Z,5.03
2022-08-05T05:12:09.226Z,5.15
2022-08-05T05:14:49.369Z,4.80
2022-08-05T05:17:22.719Z,4.47
2022-08-05T05:20:16.572Z,5.03
2022-08-05T05:22:48.595Z,5.03
2022-08-05T05:25:17.444Z,5.43
2022-08-05T05:27:53.728Z,4.95
2022-08-05T05:30:31.358Z,4.97
2022-08-05T05:33:06.050Z,5.32
2022-08-05T05:35:43.612Z,5.05
2022-08-05T05:38:12.952Z,4.90
2022-08-05T05:40:49.942Z,5.55
2022-08-05T05:43:22.406Z,5.10
2022-08-05T05:46:10.695Z,4.93
2022-08-05T05:48:43.971Z,4.95
2022-08-05T05:51:15.489Z,4.68
2022-08-05T05:53:45.908Z,4.63
2022-08-05T05:56:26.013Z,5.20
2022-08-05T05:59:03.096Z,5.35
2022-08-05T06:01:37.477Z,5.50
2022-08-05T06:04:07.140Z,5.28
2022-08-05T06:06:35.094Z,5.00
2022-08-05T06:09:04.210Z,5.05
2022-08-05T06:11:32.042Z,4.97
2022-08-05T06:14:00.476Z,4.90
2022-08-05T06:16:36.960Z,4.82
2022-08-05T06:19:05.841Z,5.40
2022-08-05T06:21:37.054Z,5.47
2022-08-05T06:24:12.071Z,5.57
2022-08-05T06:26:51.201Z,5.70
2022-08-05T06:29:46.697Z,4.90
2022-08-05T06:32:20.961Z,5.05
2022-08-05T06:34:53.606Z,5.35
2022-08-05T06:37:55.842Z,5.85
2022-08-05T06:40:10.590Z,5.70
2022-08-05T06:42:39.873Z,5.18
2022-08-05T06:45:08.500Z,5.15
2022-08-05T06:48:44.247Z,5.72
2022-08-05T06:50:22.601Z,4.72
2022-08-05T06:53:04.056Z,4.53
2022-08-05T06:55:42.049Z,5.57
2022-08-05T06:58:19.905Z,4.43
2022-08-05T07:00:50.201Z,4.32
2022-08-05T07:03:16.963Z,4.35
2022-08-05T07:05:44.133Z,5.13
2022-08-05T07:08:13.266Z,4.60
2022-08-05T07:10:52.779Z,4.70
2022-08-05T07:13:57.550Z,4.90
2022-08-05T07:17:59.113Z,4.88
2022-08-05T07:20:16.651Z,5.32
2022-08-05T07:22:27.801Z,4.75
2022-08-05T07:25:09.441Z,4.00
2022-08-05T07:27:56.346Z,4.68
2022-08-05T07:30:32.133Z,4.90
2022-08-05T07:33:00.068Z,4.40
2022-08-05T07:36:02.191Z,3.72
2022-08-05T07:38:32.739Z,5.60
2022-08-05T07:41:16.615Z,4.53
2022-08-05T07:43:48.562Z,5.45
2022-08-05T07:46:20.745Z,5.03
2022-08-05T07:49:02.529Z,6.20
2022-08-05T07:51:37.230Z,5.00
2022-08-05T07:54:05.560Z,5.00
2022-08-05T07:57:00.286Z,5.07
2022-08-05T07:59:22.041Z,5.15
2022-08-05T08:01:52.235Z,5.47
2022-08-05T08:04:37.955Z,4.40
2022-08-05T08:07:07.184Z,5.10
2022-08-05T08:09:34.847Z,5.32
2022-08-05T08:12:10.719Z,5.90
2022-08-05T08:14:46.788Z,5.20
2022-08-05T08:17:15.779Z,5.78
2022-08-05T08:20:22.214Z,4.93
2022-08-05T08:22:30.954Z,5.15
2022-08-05T08:25:03.348Z,4.90
2022-08-05T08:27:40.165Z,5.00
2022-08-05T08:30:30.092Z,5.65
2022-08-05T08:33:11.117Z,5.47
2022-08-05T08:35:41.072Z,4.95
2022-08-05T08:38:11.748Z,5.43
2022-08-05T08:40:46.740Z,6.53
2022-08-05T08:45:16.570Z,6.80
2022-08-05T08:46:10.013Z,7.15
2022-08-05T08:49:08.062Z,6.20
2022-08-05T08:52:04.052Z,6.38
2022-08-05T08:54:21.075Z,6.20
2022-08-05T08:56:54.362Z,6.25
2022-08-05T08:59:27.599Z,5.78
2022-08-05T09:02:01.440Z,5.75
2022-08-05T09:04:30.387Z,5.57
2022-08-05T09:06:58.349Z,6.25
2022-08-05T09:09:32.482Z,5.57
2022-08-05T09:12:19.938Z,6.35
2022-08-05T09:14:58.978Z,6.53
2022-08-05T09:17:40.748Z,7.00
2022-08-05T09:20:11.522Z,6.85
2022-08-05T09:23:19.542Z,6.50
2022-08-05T09:26:01.996Z,6.45
2022-08-05T09:28:38.217Z,5.97
2022-08-05T09:31:23.354Z,6.10
2022-08-05T09:34:06.393Z,5.88
2022-08-05T09:36:54.905Z,6.03
2022-08-05T09:39:27.677Z,6.15
2022-08-05T09:42:08.600Z,6.78
2022-08-05T09:44:50.816Z,6.25
2022-08-05T09:47:23.635Z,6.10
2022-08-05T09:50:01.190Z,5.40
2022-08-05T09:52:35.075Z,5.28
2022-08-05T09:55:56.108Z,5.47
2022-08-05T09:57:59.928Z,6.05
2022-08-05T10:00:27.812Z,5.50
2022-08-05T10:02:58.251Z,5.22
2022-08-05T10:05:28.516Z,5.60
2022-08-05T10:08:35.081Z,4.65
2022-08-05T10:10:53.924Z,5.97
2022-08-05T10:13:47.262Z,6.82
2022-08-05T10:16:37.954Z,5.43
2022-08-05T10:19:11.749Z,4.90
2022-08-05T10:21:40.878Z,5.75
2022-08-05T10:24:13.359Z,5.63
2022-08-05T10:26:48.948Z,5.18
2022-08-05T10:29:24.199Z,5.80
2022-08-05T10:32:53.761Z,5.60
2022-08-05T10:34:55.774Z,5.80
2022-08-05T10:37:40.311Z,5.75
2022-08-05T10:40:27.844Z,5.22
2022-08-05T10:43:01.483Z,5.15
2022-08-05T10:45:40.245Z,5.53
2022-08-05T10:48:57.275Z,5.40
2022-08-05T10:51:28.879Z,5.25
2022-08-05T10:54:01.755Z,5.13
2022-08-05T10:56:45.258Z,5.15
2022-08-05T11:00:03.392Z,5.00
2022-08-05T11:02:14.562Z,4.88
2022-08-05T11:04:59.539Z,5.13
2022-08-05T11:07:33.065Z,4.88
2022-08-05T11:10:23.148Z,4.90
2022-08-05T11:12:57.769Z,5.35
2022-08-05T11:16:00.068Z,5.55
2022-08-05T11:18:32.672Z,4.75
2022-08-05T11:21:02.916Z,4.63
2022-08-05T11:24:05.717Z,4.97
2022-08-05T11:26:40.549Z,4.00
2022-08-05T11:29:41.016Z,4.82
2022-08-05T11:32:30.107Z,4.22
2022-08-05T11:34:57.631Z,4.60
2022-08-05T11:38:37.087Z,5.22
2022-08-05T11:41:35.408Z,4.07
2022-08-05T11:44:07.020Z,5.07
2022-08-05T11:47:13.960Z,4.47
2022-08-05T11:49:49.694Z,4.60
2022-08-05T11:52:29.653Z,4.45
2022-08-05T11:54:58.681Z,4.95
2022-08-05T11:57:30.190Z,4.75
2022-08-05T11:59:58.295Z,4.63
2022-08-05T12:02:36.055Z,4.40
2022-08-05T12:05:08.164Z,4.30
2022-08-05T12:08:08.838Z,4.45
2022-08-05T12:10:42.840Z,4.65
2022-08-05T12:13:15.848Z,3.88
2022-08-05T12:15:50.022Z,4.07
2022-08-05T12:18:32.990Z,3.50
2022-08-05T12:21:10.984Z,4.15
2022-08-05T12:23:43.124Z,3.70
2022-08-05T12:26:10.091Z,4.18
2022-08-05T12:28:37.916Z,4.60
2022-08-05T12:31:05.734Z,4.05
2022-08-05T12:33:36.313Z,4.25
2022-08-05T12:36:08.824Z,4.47
2022-08-05T12:38:41.125Z,4.43
2022-08-05T12:41:16.126Z,5.03
2022-08-05T12:44:01.362Z,4.40
2022-08-05T12:46:31.151Z,4.50
2022-08-05T12:48:59.035Z,5.25
2022-08-05T12:52:13.943Z,5.10
2022-08-05T12:54:23.348Z,4.32
2022-08-05T12:57:09.401Z,4.47
2022-08-05T13:01:56.895Z,4.40
2022-08-05T13:02:40.215Z,4.65
2022-08-05T13:05:12.749Z,5.07
2022-08-05T13:08:00.601Z,5.57
2022-08-05T13:10:31.185Z,4.10
2022-08-05T13:12:58.481Z,4.07
2022-08-05T13:15:42.146Z,4.40
2022-08-05T13:18:20.738Z,4.18
2022-08-05T13:20:50.134Z,4.65
2022-08-05T13:23:18.108Z,7.10
2022-08-05T13:25:52.301Z,4.22
2022-08-05T13:28:32.343Z,3.70
2022-08-05T13:30:59.481Z,3.92
2022-08-05T13:34:22.896Z,4.70
2022-08-05T13:36:16.827Z,4.70
2022-08-05T13:38:43.463Z,3.92
2022-08-05T13:41:11.611Z,4.30
2022-08-05T13:43:45.305Z,4.28
2022-08-05T13:46:50.953Z,4.80
2022-08-05T13:49:11.742Z,4.22
2022-08-05T13:51:40.921Z,4.60
2022-08-05T13:54:13.234Z,4.10
2022-08-05T13:56:45.173Z,4.10
2022-08-05T13:59:21.122Z,5.68
2022-08-05T14:01:58.585Z,4.45
2022-08-05T14:04:50.069Z,3.83
2022-08-05T14:07:25.411Z,3.90
2022-08-05T14:10:28.485Z,3.70
2022-08-05T14:12:57.714Z,3.55
2022-08-05T14:16:08.019Z,5.30
2022-08-05T14:18:17.350Z,5.00
2022-08-05T14:20:48.030Z,4.25
2022-08-05T14:23:23.991Z,3.80
2022-08-05T14:25:58.979Z,3.75
2022-08-05T14:28:29.569Z,3.53
2022-08-05T14:31:00.877Z,3.65
2022-08-05T14:33:57.091Z,4.05
2022-08-05T14:36:15.724Z,5.75
2022-08-05T14:38:47.470Z,4.53
2022-08-05T14:41:14.950Z,3.53
2022-08-05T14:44:02.393Z,3.75
2022-08-05T14:46:32.642Z,4.68
2022-08-05T14:49:06.483Z,4.03
2022-08-05T14:51:35.309Z,6.30
2022-08-05T14:54:27.945Z,4.05
2022-08-05T14:56:48.566Z,4.07
2022-08-05T14:59:15.721Z,3.58
2022-08-05T15:01:48.055Z,3.90
2022-08-05T15:04:17.332Z,4.78
2022-08-05T15:06:49.361Z,7.10
2022-08-05T15:09:52.624Z,3.17
2022-08-05T15:12:09.007Z,3.65
2022-08-05T15:14:48.348Z,5.35
2022-08-05T15:17:47.096Z,4.38
2022-08-05T15:20:04.308Z,4.50
2022-08-05T15:22:30.871Z,3.65
2022-08-05T15:24:59.188Z,3.97
2022-08-05T15:27:32.145Z,3.42
2022-08-05T15:30:03.674Z,5.32
2022-08-05T15:32:30.280Z,6.32
2022-08-05T15:34:58.341Z,4.38
2022-08-05T15:38:33.252Z,3.58
2022-08-05T15:40:59.097Z,3.50
2022-08-05T15:43:09.228Z,3.80
2022-08-05T15:45:45.964Z,4.10
2022-08-05T15:48:13.901Z,3.72
2022-08-05T15:50:43.615Z,3.67
2022-08-05T15:53:12.466Z,3.40
2022-08-05T15:56:03.808Z,3.38
2022-08-05T15:58:29.717Z,3.38
2022-08-05T16:01:04.412Z,3.60
2022-08-05T16:03:43.041Z,3.85
2022-08-05T16:06:11.302Z,3.47
2022-08-05T16:08:38.298Z,4.13
2022-08-05T16:11:05.093Z,5.38
2022-08-05T16:13:34.247Z,4.85
2022-08-05T16:16:03.294Z,3.70
2022-08-05T16:18:32.830Z,4.25
2022-08-05T16:21:04.544Z,3.45
2022-08-05T16:23:53.082Z,3.30
2022-08-05T16:26:18.956Z,3.50
2022-08-05T16:28:53.129Z,4.10
2022-08-05T16:31:21.359Z,3.13
2022-08-05T16:33:48.213Z,4.00
2022-08-05T16:36:14.829Z,3.40
2022-08-05T16:38:54.442Z,3.47
2022-08-05T16:42:14.700Z,3.30
2022-08-05T16:44:11.967Z,3.58
2022-08-05T16:46:41.038Z,3.33
2022-08-05T16:49:09.232Z,4.05
2022-08-05T16:51:42.337Z,3.50
2022-08-05T16:54:24.849Z,3.78
2022-08-05T16:56:54.183Z,3.40
2022-08-05T16:59:20.785Z,3.85
2022-08-05T17:01:53.564Z,3.35
2022-08-05T17:04:21.953Z,10.88
2022-08-05T17:06:53.010Z,6.90
2022-08-05T17:09:20.550Z,8.25
2022-08-05T17:11:48.829Z,5.18
2022-08-05T17:14:22.350Z,3.05
2022-08-05T17:17:04.138Z,3.35
2022-08-05T17:19:31.307Z,3.53
2022-08-05T17:21:58.566Z,3.40
2022-08-05T17:24:38.643Z,3.03
2022-08-05T17:27:09.316Z,3.55
2022-08-05T17:29:41.290Z,3.05
2022-08-05T17:32:17.131Z,3.10
2022-08-05T17:34:47.795Z,3.67
2022-08-05T17:37:39.716Z,3.50
2022-08-05T17:40:10.890Z,3.40
2022-08-05T17:42:42.912Z,3.10
2022-08-05T17:45:20.270Z,4.20
2022-08-05T17:47:52.993Z,3.47
2022-08-05T17:50:28.771Z,3.30
2022-08-05T17:52:59.266Z,3.67
2022-08-05T17:55:37.218Z,3.22
2022-08-05T17:58:06.870Z,2.92
2022-08-05T18:00:34.610Z,3.08
2022-08-05T18:03:02.125Z,2.97
2022-08-05T18:05:28.927Z,3.03
2022-08-05T18:08:02.280Z,2.90
2022-08-05T18:10:33.419Z,2.83
2022-08-05T18:13:00.632Z,3.05
2022-08-05T18:15:31.072Z,3.30
2022-08-05T18:18:05.766Z,3.38
2022-08-05T18:20:37.785Z,3.30
2022-08-05T18:23:09.320Z,2.90
2022-08-05T18:25:44.742Z,2.90
2022-08-05T18:28:17.890Z,3.03
2022-08-05T18:30:51.158Z,3.00
2022-08-05T18:33:22.400Z,2.47
2022-08-05T18:36:04.241Z,3.15
2022-08-05T18:38:37.165Z,2.92
2022-08-05T18:41:57.225Z,2.85
2022-08-05T18:43:53.077Z,2.95
2022-08-05T18:46:20.681Z,3.17
2022-08-05T18:48:51.884Z,4.55
2022-08-05T18:52:04.970Z,2.60
2022-08-05T18:54:25.398Z,3.00
2022-08-05T18:56:52.229Z,3.25
2022-08-05T18:59:43.651Z,3.22
2022-08-05T19:02:11.317Z,2.80
2022-08-05T19:05:01.639Z,3.20
2022-08-05T19:07:45.871Z,2.50
2022-08-05T19:10:14.762Z,3.17
2022-08-05T19:12:41.672Z,2.72
2022-08-05T19:15:45.065Z,2.70
2022-08-05T19:18:09.239Z,3.00
2022-08-05T19:20:41.841Z,2.80
2022-08-05T19:24:04.140Z,3.50
2022-08-05T19:26:03.324Z,3.33
2022-08-05T19:28:34.734Z,3.08
2022-08-05T19:31:01.480Z,3.83
2022-08-05T19:33:36.189Z,2.80
2022-08-05T19:36:06.361Z,3.00
2022-08-05T19:38:35.866Z,2.70
2022-08-05T19:41:07.142Z,3.22
2022-08-05T19:44:06.283Z,2.97
2022-08-05T19:46:30.668Z,3.08
2022-08-05T19:49:01.064Z,3.83
2022-08-05T19:52:05.666Z,3.70
2022-08-05T19:54:27.045Z,3.15
2022-08-05T19:56:59.177Z,3.10
2022-08-05T19:59:55.411Z,3.03
2022-08-05T20:02:17.613Z,3.25
2022-08-05T20:04:46.167Z,2.97
2022-08-05T20:07:15.689Z,3.25
2022-08-05T20:10:04.858Z,2.90
2022-08-05T20:12:40.007Z,3.20
2022-08-05T20:15:15.866Z,3.80
2022-08-05T20:18:10.520Z,3.55
2022-08-05T20:20:51.047Z,3.40
2022-08-05T20:23:17.607Z,3.00
2022-08-05T20:25:52.214Z,3.03
2022-08-05T20:28:19.176Z,3.45
2022-08-05T20:30:48.871Z,3.30
2022-08-05T20:33:16.672Z,3.55
2022-08-05T20:35:45.663Z,3.45
2022-08-05T20:38:20.215Z,3.80
2022-08-05T20:40:56.838Z,3.00
2022-08-05T20:43:57.528Z,3.60
2022-08-05T20:46:18.464Z,3.83
2022-08-05T20:48:51.770Z,3.20
2022-08-05T20:51:21.966Z,3.17
2022-08-05T20:56:42.503Z,2.97
2022-08-05T21:02:26.894Z,7.70
2022-08-05T21:04:56.292Z,3.70
2022-08-05T21:07:23.987Z,3.58
2022-08-05T21:09:53.786Z,3.70
2022-08-05T21:12:32.960Z,3.42
2022-08-05T21:14:59.658Z,3.58
2022-08-05T21:17:27.063Z,3.15
2022-08-05T21:19:57.600Z,3.10
2022-08-05T21:22:26.307Z,3.63
2022-08-05T21:24:54.496Z,3.63
2022-08-05T21:27:25.547Z,4.10
2022-08-05T21:29:57.527Z,3.22
2022-08-05T21:32:26.705Z,3.00
2022-08-05T21:35:17.861Z,3.90
2022-08-05T21:37:47.141Z,3.55
2022-08-05T21:40:14.409Z,3.40
2022-08-05T21:42:44.788Z,3.50
2022-08-05T21:45:13.659Z,3.78
2022-08-05T21:47:58.227Z,3.85
2022-08-05T21:50:26.466Z,3.63
2022-08-05T21:52:59.025Z,3.90
2022-08-05T21:56:01.217Z,3.30
2022-08-05T21:58:19.494Z,3.40
2022-08-05T22:00:51.330Z,3.95
2022-08-05T22:03:18.548Z,3.67
2022-08-05T22:06:06.346Z,3.80
2022-08-05T22:08:35.067Z,3.38
2022-08-05T22:11:01.737Z,3.60
2022-08-05T22:14:06.148Z,3.38
2022-08-05T22:16:41.396Z,4.10
2022-08-05T22:20:00.614Z,3.95
2022-08-05T22:21:53.182Z,3.25
2022-08-05T22:24:40.606Z,5.35
2022-08-05T22:28:08.891Z,3.75
2022-08-05T22:30:23.280Z,3.75
2022-08-05T22:32:49.855Z,3.80
2022-08-05T22:35:16.426Z,4.35
2022-08-05T22:37:59.168Z,3.30
2022-08-05T22:40:30.639Z,3.85
2022-08-05T22:42:58.393Z,3.58
2022-08-05T22:45:26.521Z,3.95
2022-08-05T22:47:59.275Z,3.10
2022-08-05T22:50:27.969Z,3.28
2022-08-05T22:52:57.604Z,3.28
2022-08-05T22:55:26.684Z,3.67
2022-08-05T22:58:03.800Z,3.63
2022-08-05T23:00:31.785Z,3.03
2022-08-05T23:05:42.323Z,4.53
2022-08-05T23:10:57.194Z,3.70
2022-08-05T23:13:25.453Z,3.53
2022-08-05T23:15:52.072Z,3.85
2022-08-05T23:18:18.708Z,3.65
2022-08-05T23:20:49.559Z,3.80
2022-08-05T23:23:16.382Z,3.63
2022-08-05T23:25:53.628Z,3.40
2022-08-05T23:28:24.047Z,3.40
2022-08-05T23:31:15.772Z,3.58
2022-08-05T23:34:04.884Z,3.72
2022-08-05T23:36:40.312Z,3.65
2022-08-05T23:39:16.425Z,3.67
2022-08-05T23:41:50.810Z,4.22
2022-08-05T23:44:19.815Z,3.67
2022-08-05T23:46:51.931Z,3.70
2022-08-05T23:49:23.825Z,3.70
2022-08-05T23:52:11.036Z,3.72
2022-08-05T23:54:38.686Z,3.47
2022-08-05T23:57:07.053Z,3.70
